Yong'An, China
Current Conditions -  °F | °C
As of 4:00 AM on Wednesday 26 Nov 2014 (Local Time) from ZSAM Reporting Station
Broken Clouds Broken Clouds  
Wind Chill: 70°   Ceiling: 2100
Heat Index: 70°   Visibility: 4mi
Dew Point: 66°   Wind: 4mph
Humidity: 88%   Direction: 60°ENE
Pressure: 29.94"   Gusts: NA
Location:  25.97°N, 117.35°E
Report Text: ZSAM 252000Z 06002MPS 030V090 6000 BKN021 21/19 Q1014 NOSIG
Loading
Personal Weather Stations






























Interactive Weather Map New forecast layout! Learn more

10-Day Weather Forecast

Advertisements
Track Severe Weather on mobile